Time;durP1;ratioP1;P1;durP2;ratioP2;P2;SDS_P1;SDS_P2;PMS_P1;PMS_P2;Temp;Humidity;BMP_temperature;BMP_pressure;BME280_temperature;BME280_humidity;BME280_pressure;Samples;Min_cycle;Max_cycle;Signal;HPM_P1;HPM_P2
2022/04/28 00:00:17;;;;;;;;;37.75;32.25;;;;;15.42;46.90;102249.03;2403907;28;45572;-85
2022/04/28 00:01:28;;;;;;;;;35.75;31.25;;;;;15.40;46.94;102243.78;2404144;28;45405;-86
2022/04/28 00:02:39;;;;;;;;;40.25;33.75;;;;;15.40;46.77;102243.78;2403271;28;47141;-86
2022/04/28 00:03:49;;;;;;;;;35.75;31.75;;;;;15.39;46.92;102242.03;2405346;28;44782;-85
2022/04/28 00:05:01;;;;;;;;;45.00;36.50;;;;;15.38;46.70;102242.94;2407838;28;47229;-87
2022/04/28 00:06:11;;;;;;;;;38.00;32.50;;;;;15.37;46.80;102248.31;2396893;28;45263;-86
2022/04/28 00:07:21;;;;;;;;;37.25;30.50;;;;;15.34;47.06;102236.00;2404008;28;46196;-85
2022/04/28 00:08:32;;;;;;;;;43.00;35.50;;;;;15.35;46.93;102239.53;2400336;28;45429;-85
2022/04/28 00:09:42;;;;;;;;;40.25;34.25;;;;;15.35;46.96;102248.34;2396344;28;45293;-86
2022/04/28 00:10:52;;;;;;;;;47.25;34.25;;;;;15.34;47.06;102243.09;2404046;28;45211;-87
2022/04/28 00:12:03;;;;;;;;;40.75;35.00;;;;;15.33;46.73;102238.72;2393687;28;46969;-85
2022/04/28 00:13:14;;;;;;;;;42.00;34.75;;;;;15.33;47.17;102241.38;2396570;28;45161;-86
2022/04/28 00:14:24;;;;;;;;;36.50;32.50;;;;;15.32;47.09;102244.91;2403940;28;46359;-86
2022/04/28 00:15:35;;;;;;;;;34.50;32.50;;;;;15.31;47.02;102241.38;2396199;28;45276;-86
2022/04/28 00:16:45;;;;;;;;;35.75;33.50;;;;;15.29;46.43;102244.09;2386993;28;47049;-85
2022/04/28 00:17:56;;;;;;;;;39.25;34.50;;;;;15.29;46.91;102244.09;2396829;28;45259;-86
2022/04/28 00:19:07;;;;;;;;;37.50;31.50;;;;;15.27;47.07;102243.28;2403129;28;47504;-79
2022/04/28 00:20:17;;;;;;;;;36.00;32.50;;;;;15.24;46.94;102253.94;2403443;28;45656;-80
2022/04/28 00:21:28;;;;;;;;;39.25;34.25;;;;;15.22;46.99;102242.53;2403675;28;46250;-80
2022/04/28 00:22:38;;;;;;;;;36.25;31.00;;;;;15.21;47.12;102246.09;2404037;28;45329;-80
2022/04/28 00:23:49;;;;;;;;;44.00;33.25;;;;;15.19;47.11;102237.31;2407996;28;46420;-81
2022/04/28 00:24:59;;;;;;;;;37.50;32.50;;;;;15.20;46.94;102239.06;2411323;28;44556;-81
2022/04/28 00:26:10;;;;;;;;;34.00;30.00;;;;;15.19;47.09;102245.25;2403840;28;46549;-80
2022/04/28 00:27:20;;;;;;;;;35.75;32.00;;;;;15.19;46.93;102245.25;2404581;28;45261;-80
2022/04/28 00:28:30;;;;;;;;;40.00;34.50;;;;;15.15;46.98;102238.34;2403770;28;46196;-80
2022/04/28 00:29:41;;;;;;;;;39.00;33.50;;;;;15.10;47.24;102241.13;2403947;28;45214;-80
2022/04/28 00:30:51;;;;;;;;;40.25;34.00;;;;;15.06;47.05;102231.53;2403708;28;45390;-81
2022/04/28 00:32:02;;;;;;;;;42.00;34.50;;;;;15.04;47.03;102236.84;2403833;28;45248;-80
2022/04/28 00:33:12;;;;;;;;;40.25;34.25;;;;;15.01;47.53;102233.44;2405369;28;45444;-81
2022/04/28 00:34:22;;;;;;;;;38.75;33.00;;;;;14.98;47.32;102234.38;2412043;28;44706;-80
2022/04/28 00:35:33;;;;;;;;;34.50;32.75;;;;;14.97;47.30;102232.63;2406975;28;46355;-79
2022/04/28 00:36:43;;;;;;;;;37.00;32.25;;;;;14.94;47.49;102228.28;2406945;28;45436;-80
2022/04/28 00:37:53;;;;;;;;;46.75;34.50;;;;;14.92;47.31;102224.81;2413156;28;46438;-83
2022/04/28 00:39:04;;;;;;;;;39.25;34.25;;;;;14.91;47.38;102232.81;2403852;28;45269;-78
2022/04/28 00:40:14;;;;;;;;;39.50;32.75;;;;;14.89;47.54;102224.91;2403500;28;45498;-78
2022/04/28 00:41:25;;;;;;;;;40.50;33.00;;;;;14.92;47.67;102235.41;2393631;28;45298;-78
2022/04/28 00:42:35;;;;;;;;;36.50;32.75;;;;;14.89;47.34;102232.00;2396085;28;46221;-78
2022/04/28 00:43:53;;;;;;;;;34.50;28.25;;;;;14.89;47.51;102229.34;2403686;28;45421;-78
2022/04/28 00:45:04;;;;;;;;;42.00;34.50;;;;;14.89;47.53;102232.84;2403281;28;45466;-78
2022/04/28 00:46:14;;;;;;;;;33.50;31.75;;;;;14.87;47.37;102231.13;2403862;28;45293;-78
2022/04/28 00:50:38;;;;;;;;;40.25;33.00;;;;;14.87;47.60;102233.78;2403472;28;45582;-80
2022/04/28 00:50:39;;;;;;;;;40.50;32.25;;;;;14.82;47.63;102223.28;2403581;28;45308;-80
2022/04/28 00:51:50;;;;;;;;;40.50;34.75;;;;;14.82;47.56;102241.81;2405426;28;45197;-80
2022/04/28 00:53:02;;;;;;;;;35.25;33.75;;;;;14.78;47.67;102227.81;2403645;28;45384;-80
2022/04/28 00:54:13;;;;;;;;;34.25;31.75;;;;;14.79;47.51;102228.69;2403504;28;44644;-80
2022/04/28 00:55:24;;;;;;;;;35.00;31.50;;;;;14.77;47.56;102226.06;2403082;28;46581;-80
2022/04/28 00:56:34;;;;;;;;;37.50;32.25;;;;;14.78;47.63;102234.88;2403715;28;45361;-80
2022/04/28 00:57:45;;;;;;;;;39.50;32.50;;;;;14.77;47.87;102226.06;2403643;28;45413;-80
2022/04/28 00:59:00;;;;;;;;;39.25;32.50;;;;;14.74;47.66;102226.19;2403700;28;44698;-80
2022/04/28 01:00:11;;;;;;;;;40.25;34.75;;;;;14.73;47.78;102230.59;2411329;28;45351;-80
2022/04/28 01:01:22;;;;;;;;;23.75;20.50;;;;;14.73;47.58;102224.44;2413137;28;44604;-80
2022/04/28 01:02:32;;;;;;;;;37.25;34.25;;;;;14.72;47.56;102223.56;2405566;28;46242;-80
2022/04/28 01:03:46;;;;;;;;;37.50;32.25;;;;;14.70;47.69;102224.50;2403748;28;45192;-79
2022/04/28 01:04:56;;;;;;;;;40.00;34.75;;;;;14.69;47.68;102236.00;2403511;28;45357;-78
2022/04/28 01:06:07;;;;;;;;;43.75;34.75;;;;;14.66;47.68;102229.03;2403232;28;45518;-78
2022/04/28 01:07:17;;;;;;;;;36.00;32.75;;;;;14.65;47.44;102234.34;2403619;28;45992;-78
2022/04/28 01:08:28;;;;;;;;;36.50;33.50;;;;;14.64;47.49;102241.44;2403578;28;45222;-78
2022/04/28 01:09:41;;;;;;;;;33.25;30.50;;;;;14.60;48.02;102231.81;2403153;28;45637;-78
2022/04/28 01:10:51;;;;;;;;;40.00;30.25;;;;;14.58;47.67;102233.63;2403672;28;45191;-78
2022/04/28 01:12:06;;;;;;;;;34.25;31.50;;;;;14.60;47.73;102234.47;2403011;28;45345;-78
2022/04/28 01:13:17;;;;;;;;;37.25;33.50;;;;;14.58;47.76;102236.28;2403527;28;45235;-78
2022/04/28 01:14:27;;;;;;;;;34.25;31.75;;;;;14.58;47.74;102237.16;2403431;28;46328;-78
2022/04/28 01:15:48;;;;;;;;;40.75;32.75;;;;;14.53;47.47;102239.03;2403223;28;45436;-78
2022/04/28 01:17:00;;;;;;;;;35.00;30.50;;;;;14.53;47.87;102239.03;2395728;28;46857;-78
2022/04/28 01:18:10;;;;;;;;;33.75;31.75;;;;;14.51;47.80;102232.94;2403226;28;45215;-78
2022/04/28 01:19:21;;;;;;;;;34.75;32.75;;;;;14.47;47.71;102237.41;2403312;28;46212;-78
2022/04/28 01:20:31;;;;;;;;;34.25;29.25;;;;;14.48;47.84;102230.34;2404128;28;45164;-78
2022/04/28 01:21:41;;;;;;;;;34.50;27.50;;;;;14.48;47.84;102233.00;2403528;28;45434;-78
2022/04/28 01:22:52;;;;;;;;;35.25;29.25;;;;;14.47;47.99;102233.94;2403953;28;45220;-78
2022/04/28 01:24:03;;;;;;;;;39.00;33.25;;;;;14.47;48.13;102231.28;2403101;28;46277;-78
2022/04/28 01:25:13;;;;;;;;;36.25;29.75;;;;;14.47;48.13;102233.94;2403167;28;45234;-78
2022/04/28 01:26:27;;;;;;;;;36.75;32.00;;;;;14.45;47.93;102227.78;2403463;28;46131;-78
2022/04/28 01:27:38;;;;;;;;;33.25;28.25;;;;;14.43;47.82;102225.19;2403154;28;45254;-78
2022/04/28 01:28:49;;;;;;;;;33.75;30.25;;;;;14.42;47.81;102225.25;2403747;28;45793;-78
2022/04/28 01:29:59;;;;;;;;;34.00;32.00;;;;;14.39;48.16;102229.69;2413091;28;45217;-78
2022/04/28 01:31:10;;;;;;;;;39.75;32.75;;;;;14.39;48.07;102227.06;2408951;28;46445;-80
2022/04/28 01:32:20;;;;;;;;;42.25;32.25;;;;;14.39;47.99;102232.34;2406503;28;44786;-81
2022/04/28 01:33:31;;;;;;;;;33.00;31.00;;;;;14.38;48.09;102229.72;2407023;28;45506;-81
2022/04/28 01:34:41;;;;;;;;;33.50;30.75;;;;;14.38;48.16;102227.94;2403541;28;45238;-78
2022/04/28 01:35:52;;;;;;;;;38.75;33.75;;;;;14.38;47.85;102219.13;2403165;28;48226;-78
2022/04/28 01:37:02;;;;;;;;;45.00;34.75;;;;;14.38;48.26;102221.78;2403143;28;45226;-78
2022/04/28 01:38:13;;;;;;;;;38.25;31.50;;;;;14.36;48.27;102232.41;2403326;28;46042;-78
2022/04/28 01:39:23;;;;;;;;;43.25;33.75;;;;;14.37;47.80;102230.66;2403135;28;44604;-80
2022/04/28 01:40:34;;;;;;;;;35.50;31.50;;;;;14.33;48.05;102221.91;2403063;28;46092;-79
2022/04/28 01:41:46;;;;;;;;;39.25;34.50;;;;;14.33;48.15;102221.91;2403275;28;45527;-80
2022/04/28 01:42:57;;;;;;;;;39.50;32.00;;;;;14.32;47.93;102229.88;2412545;28;46855;-80
2022/04/28 01:44:07;;;;;;;;;44.75;34.25;;;;;14.28;48.30;102223.78;2406678;28;45233;-80
2022/04/28 01:45:17;;;;;;;;;41.75;33.25;;;;;14.26;48.28;102220.31;2403166;28;45391;-79
2022/04/28 01:46:28;;;;;;;;;32.75;29.00;;;;;14.23;48.13;102220.38;2403409;28;45442;-79
2022/04/28 01:47:39;;;;;;;;;39.25;35.00;;;;;14.21;48.75;102224.84;2402857;28;45280;-79
2022/04/28 01:48:49;;;;;;;;;35.25;30.75;;;;;14.23;48.70;102230.97;2403351;28;45372;-79
2022/04/28 01:49:59;;;;;;;;;40.50;33.50;;;;;14.21;48.38;102223.09;2403131;28;46366;-78
2022/04/28 01:55:37;;;;;;;;;34.25;30.50;;;;;14.18;48.49;102231.97;2402958;28;45305;-78
2022/04/28 01:56:47;;;;;;;;;32.50;32.25;;;;;14.15;48.51;102231.16;2403226;28;45546;-78
2022/04/28 01:57:58;;;;;;;;;43.00;37.25;;;;;14.16;48.36;102241.72;2403016;28;45569;-78
2022/04/28 01:59:09;;;;;;;;;38.50;33.00;;;;;14.13;48.04;102236.50;2403116;28;44663;-78
2022/04/28 02:00:19;;;;;;;;;39.75;32.00;;;;;14.14;48.64;102232.94;2402335;28;45444;-79
2022/04/28 02:01:29;;;;;;;;;40.50;35.50;;;;;14.14;48.65;102232.06;2402900;28;45234;-79
2022/04/28 02:02:40;;;;;;;;;35.75;31.50;;;;;14.15;48.51;102239.09;2402649;28;46501;-79
2022/04/28 02:03:51;;;;;;;;;32.00;30.75;;;;;14.14;48.67;102232.06;2403233;28;44569;-78
2022/04/28 02:05:02;;;;;;;;;43.75;35.25;;;;;14.13;48.71;102240.91;2402670;28;46455;-78
2022/04/28 02:06:13;;;;;;;;;29.75;28.25;;;;;14.10;48.48;102231.25;2403192;28;45198;-78
2022/04/28 02:07:23;;;;;;;;;35.75;32.25;;;;;14.05;48.33;102241.94;2402831;28;50326;-78
2022/04/28 02:08:34;;;;;;;;;34.25;30.75;;;;;14.02;48.59;102241.16;2403281;28;45393;-78
2022/04/28 02:09:45;;;;;;;;;32.50;31.50;;;;;14.00;48.46;102238.53;2402593;28;45434;-78
2022/04/28 02:10:55;;;;;;;;;35.75;29.50;;;;;14.00;48.63;102237.69;2403129;28;45328;-78
2022/04/28 02:12:06;;;;;;;;;38.25;34.00;;;;;13.99;48.66;102241.22;2402788;28;46233;-78
2022/04/28 02:13:17;;;;;;;;;46.50;34.75;;;;;13.97;48.41;102240.41;2403257;28;44645;-78
2022/04/28 02:14:27;;;;;;;;;40.75;34.25;;;;;13.94;48.84;102239.56;2402897;28;46468;-78
2022/04/28 02:15:37;;;;;;;;;35.75;30.00;;;;;13.92;48.78;102238.75;2403164;28;44719;-78
2022/04/28 02:16:48;;;;;;;;;37.25;30.75;;;;;13.90;48.73;102242.31;2402670;28;45287;-78
2022/04/28 02:17:58;;;;;;;;;31.00;29.50;;;;;13.86;48.97;102241.50;2406848;28;45309;-78
2022/04/28 02:19:08;;;;;;;;;30.25;28.75;;;;;13.84;49.03;102241.56;2412461;28;46246;-78
2022/04/28 02:20:19;;;;;;;;;40.50;32.00;;;;;13.83;48.75;102239.81;2412631;28;44565;-78
2022/04/28 02:21:29;;;;;;;;;40.00;32.75;;;;;13.82;49.11;102245.16;2405269;28;46618;-78
2022/04/28 02:22:39;;;;;;;;;38.75;34.25;;;;;13.82;48.98;102242.50;2402803;28;45213;-78
2022/04/28 02:23:50;;;;;;;;;35.00;32.25;;;;;13.82;48.93;102242.50;2402704;28;45491;-78
2022/04/28 02:25:00;;;;;;;;;39.25;35.25;;;;;13.82;49.27;102243.38;2402614;28;45183;-79
2022/04/28 02:26:10;;;;;;;;;34.25;33.00;;;;;13.86;49.05;102245.94;2402960;28;46105;-79
2022/04/28 02:27:21;;;;;;;;;41.50;33.50;;;;;13.87;49.32;102240.63;2402977;28;45275;-79
2022/04/28 02:28:31;;;;;;;;;38.75;32.50;;;;;13.86;48.89;102244.16;2402927;28;45247;-80
2022/04/28 02:29:41;;;;;;;;;34.75;30.00;;;;;13.87;49.11;102248.56;2402938;28;45183;-80
2022/04/28 02:30:52;;;;;;;;;38.50;31.50;;;;;13.87;48.96;102245.03;2392542;28;47235;-80
2022/04/28 02:32:03;;;;;;;;;38.50;33.50;;;;;13.82;48.83;102242.50;2401243;28;45143;-80
2022/04/28 02:33:13;;;;;;;;;42.00;32.75;;;;;13.81;48.89;102240.75;2413666;28;45354;-79
2022/04/28 02:34:24;;;;;;;;;44.50;35.75;;;;;13.79;49.05;102240.78;2422082;28;45536;-79
2022/04/28 02:35:35;;;;;;;;;39.25;33.00;;;;;13.78;49.29;102243.47;2404238;28;46674;-80
2022/04/28 02:36:46;;;;;;;;;40.75;34.25;;;;;13.75;49.03;102244.41;2402941;28;45302;-80
2022/04/28 02:37:56;;;;;;;;;40.50;31.50;;;;;13.72;49.30;102242.72;2402792;28;45550;-79
2022/04/28 02:39:07;;;;;;;;;39.25;32.75;;;;;13.72;49.07;102245.34;2402835;28;45357;-78
2022/04/28 02:40:17;;;;;;;;;37.75;31.75;;;;;13.71;49.43;102248.88;2402352;28;45469;-78
2022/04/28 02:41:29;;;;;;;;;44.75;36.50;;;;;13.71;49.52;102250.66;2404088;28;45392;-77
2022/04/28 02:42:39;;;;;;;;;38.75;32.50;;;;;13.68;49.20;102251.59;2402692;28;46321;-77
2022/04/28 02:43:51;;;;;;;;;40.00;32.50;;;;;13.68;49.30;102251.59;2403034;28;44596;-77
2022/04/28 02:45:02;;;;;;;;;40.50;33.50;;;;;13.69;49.28;102258.63;2402659;28;46352;-77
2022/04/28 02:46:12;;;;;;;;;35.50;30.75;;;;;13.67;49.19;102254.28;2402930;28;45503;-78
2022/04/28 02:47:23;;;;;;;;;34.25;30.75;;;;;13.64;49.33;102255.22;2402763;28;46172;-78
2022/04/28 02:48:34;;;;;;;;;38.25;31.75;;;;;13.64;49.63;102259.63;2403001;28;45160;-78
2022/04/28 02:49:44;;;;;;;;;40.00;33.00;;;;;13.65;49.49;102256.97;2402387;28;46614;-78
2022/04/28 02:50:55;;;;;;;;;34.00;29.50;;;;;13.61;49.20;102249.97;2403763;28;44824;-78
2022/04/28 02:52:05;;;;;;;;;37.00;30.50;;;;;13.59;49.26;102251.78;2412275;28;45496;-77
2022/04/28 02:53:16;;;;;;;;;36.75;32.50;;;;;13.62;49.52;102257.03;2396229;28;44783;-79
2022/04/28 02:54:27;;;;;;;;;38.25;33.75;;;;;13.59;49.35;102252.66;2395149;28;45487;-79
2022/04/28 02:55:39;;;;;;;;;36.75;30.75;;;;;13.61;49.72;102255.25;2402698;28;45243;-79
2022/04/28 02:56:50;;;;;;;;;32.25;26.50;;;;;13.60;49.81;102253.53;2402675;28;45264;-79
2022/04/28 02:58:00;;;;;;;;;37.00;31.75;;;;;13.61;49.57;102252.63;2402820;28;45209;-79
2022/04/28 02:59:10;;;;;;;;;34.00;30.00;;;;;13.63;49.71;102255.25;2402512;28;45320;-76
2022/04/28 03:00:21;;;;;;;;;36.75;32.75;;;;;13.62;49.81;102257.03;2402822;28;45230;-76
2022/04/28 03:01:31;;;;;;;;;44.00;33.75;;;;;13.65;49.39;102259.59;2402338;28;45363;-76
2022/04/28 03:02:41;;;;;;;;;42.50;33.50;;;;;13.61;49.75;102260.56;2402802;28;45227;-77
2022/04/28 03:03:52;;;;;;;;;32.00;29.00;;;;;13.59;49.28;102254.44;2402767;28;46399;-76
2022/04/28 03:05:04;;;;;;;;;38.50;30.50;;;;;13.55;49.64;102255.38;2402720;28;45236;-77
2022/04/28 03:10:49;;;;;;;;;40.50;34.00;;;;;13.46;49.88;102261.69;2403588;28;45372;-80
2022/04/28 03:11:59;;;;;;;;;36.25;32.00;;;;;13.43;49.86;102257.38;2409908;28;45198;-80
2022/04/28 03:13:10;;;;;;;;;38.25;31.00;;;;;13.43;49.89;102260.03;2413056;28;45238;-80
2022/04/28 03:14:21;;;;;;;;;38.75;31.75;;;;;13.41;50.01;102264.44;2405811;28;46514;-80
2022/04/28 03:15:31;;;;;;;;;37.75;33.00;;;;;13.41;49.89;102264.44;2405894;28;44715;-80
2022/04/28 03:16:42;;;;;;;;;38.50;32.75;;;;;13.41;49.99;102269.72;2405431;28;46987;-81
2022/04/28 03:17:52;;;;;;;;;42.25;35.25;;;;;13.42;49.91;102265.31;2405973;28;45222;-89
2022/04/28 03:19:04;;;;;;;;;34.50;32.00;;;;;13.39;49.95;102266.25;2405433;28;46247;-86
2022/04/28 03:20:15;;;;;;;;;39.25;31.75;;;;;13.38;49.93;102273.31;2405886;28;45218;-87
2022/04/28 03:21:25;;;;;;;;;37.25;32.00;;;;;13.36;50.27;102261.91;2404933;28;47085;-87
2022/04/28 03:22:36;;;;;;;;;45.00;32.75;;;;;13.37;50.42;102268.94;2405326;28;44691;-81
2022/04/28 03:23:46;;;;;;;;;37.75;32.75;;;;;13.34;50.09;102265.47;2405662;28;46065;-84
2022/04/28 03:24:57;;;;;;;;;36.75;33.00;;;;;13.34;50.22;102262.84;2405271;28;44771;-84
2022/04/28 03:26:07;;;;;;;;;40.25;33.00;;;;;13.34;50.31;102265.47;2405823;28;46304;-84
2022/04/28 03:27:17;;;;;;;;;37.25;35.00;;;;;13.33;50.53;102262.00;2405405;28;45354;-86
2022/04/28 03:28:28;;;;;;;;;31.75;27.75;;;;;13.33;50.64;102264.63;2397413;28;46086;-85
2022/04/28 03:29:38;;;;;;;;;35.75;31.00;;;;;13.30;50.06;102269.09;2405412;28;45250;-85
2022/04/28 03:30:49;;;;;;;;;41.75;35.50;;;;;13.30;50.25;102263.81;2395354;28;47230;-85
2022/04/28 03:32:00;;;;;;;;;41.25;36.00;;;;;13.26;50.21;102265.66;2398450;28;44593;-85
2022/04/28 03:33:10;;;;;;;;;38.00;32.50;;;;;13.23;49.78;102269.22;2409541;28;45269;-85
2022/04/28 03:34:24;;;;;;;;;38.75;31.50;;;;;13.21;50.32;102267.50;2396103;28;45226;-85
2022/04/28 03:35:35;;;;;;;;;45.00;33.50;;;;;13.21;50.25;102262.22;2401317;28;48758;-85
2022/04/28 03:36:51;;;;;;;;;39.00;32.75;;;;;13.24;50.63;102262.16;2411800;28;45462;-84
2022/04/28 03:38:02;;;;;;;;;41.75;35.75;;;;;13.22;50.39;102258.66;2405843;28;46266;-83
2022/04/28 03:39:12;;;;;;;;;41.25;34.50;;;;;13.21;50.50;102265.72;2412574;28;44632;-83
2022/04/28 03:40:22;;;;;;;;;41.00;32.50;;;;;13.23;50.55;102263.94;2414697;28;46522;-83
2022/04/28 03:41:33;;;;;;;;;44.25;34.75;;;;;13.21;50.77;102260.44;2413851;28;45234;-83
2022/04/28 03:42:44;;;;;;;;;41.50;37.00;;;;;13.21;50.25;102268.34;2408815;28;45465;-85
2022/04/28 03:43:54;;;;;;;;;43.50;34.75;;;;;13.20;50.60;102265.75;2398187;28;45172;-84
2022/04/28 03:45:05;;;;;;;;;42.00;37.50;;;;;13.17;50.65;102271.97;2407762;28;45483;-84
2022/04/28 03:46:15;;;;;;;;;44.00;37.00;;;;;13.14;50.27;102266.72;2406378;28;45356;-84
2022/04/28 03:47:32;;;;;;;;;37.25;33.75;;;;;13.15;50.45;102268.50;2403992;28;46748;-86
2022/04/28 03:48:42;;;;;;;;;42.75;35.25;;;;;13.11;50.34;102264.19;2396285;28;44776;-85
2022/04/28 03:49:55;;;;;;;;;32.00;29.00;;;;;13.13;50.67;102270.28;2398256;28;46332;-85
2022/04/28 03:51:05;;;;;;;;;43.25;37.00;;;;;13.11;50.67;102265.03;2414646;28;45457;-85
2022/04/28 03:52:15;;;;;;;;;37.25;32.75;;;;;13.07;50.62;102265.13;2414957;28;45498;-85
2022/04/28 03:53:26;;;;;;;;;43.00;34.75;;;;;13.03;50.88;102262.56;2415052;28;45284;-85
2022/04/28 03:54:36;;;;;;;;;38.50;34.75;;;;;13.04;50.83;102285.41;2414898;28;45301;-85
2022/04/28 03:55:46;;;;;;;;;45.50;37.50;;;;;13.03;50.74;102267.84;2408916;28;45470;-85
2022/04/28 03:56:57;;;;;;;;;50.50;36.50;;;;;13.05;51.06;102281.00;2405232;28;45392;-85
2022/04/28 03:58:07;;;;;;;;;40.25;37.75;;;;;13.03;50.89;102270.47;2405704;28;45242;-84
2022/04/28 03:59:17;;;;;;;;;44.00;37.25;;;;;13.03;50.67;102273.13;2402645;28;46425;-84
2022/04/28 04:00:28;;;;;;;;;40.75;35.00;;;;;13.01;51.13;102272.25;2405129;28;45307;-84
2022/04/28 04:01:38;;;;;;;;;42.50;37.00;;;;;13.02;50.91;102273.13;2405376;28;46283;-84
2022/04/28 04:02:49;;;;;;;;;46.50;37.50;;;;;13.03;51.08;102272.22;2405743;28;45163;-85
2022/04/28 04:04:00;;;;;;;;;44.50;36.75;;;;;13.05;50.58;102279.22;2395253;28;47058;-88
2022/04/28 04:05:11;;;;;;;;;44.00;36.50;;;;;13.04;50.91;102282.75;2398191;28;45888;-88
2022/04/28 04:06:21;;;;;;;;;46.50;34.50;;;;;13.05;50.97;102283.63;2405579;28;45290;-87
2022/04/28 04:07:33;;;;;;;;;45.50;36.75;;;;;13.04;51.08;102277.47;2395512;28;45171;-87
2022/04/28 04:08:43;;;;;;;;;41.50;35.50;;;;;13.07;50.98;102281.81;2398288;28;45281;-87
2022/04/28 04:09:53;;;;;;;;;38.50;35.00;;;;;13.05;50.91;102279.22;2405377;28;45294;-88
2022/04/28 04:11:04;;;;;;;;;51.75;38.25;;;;;13.08;50.94;102283.59;2405021;28;45427;-87
2022/04/28 04:12:14;;;;;;;;;48.50;34.75;;;;;13.06;50.99;102277.47;2405525;28;45410;-87
2022/04/28 04:13:25;;;;;;;;;47.75;38.50;;;;;13.07;51.23;102281.81;2395257;28;47983;-88
2022/04/28 04:14:35;;;;;;;;;47.00;37.25;;;;;13.09;50.85;102287.09;2395715;28;45259;-88
2022/04/28 04:15:45;;;;;;;;;45.00;38.00;;;;;13.07;50.81;102286.22;2397927;28;46095;-88
2022/04/28 04:16:56;;;;;;;;;49.00;37.50;;;;;13.06;51.05;102288.03;2405170;28;45301;-88
2022/04/28 04:18:06;;;;;;;;;49.00;38.25;;;;;13.05;51.25;102283.63;2404649;28;47486;-84
2022/04/28 04:19:17;;;;;;;;;40.25;36.75;;;;;13.05;50.98;102281.00;2404913;28;45325;-85
2022/04/28 04:20:28;;;;;;;;;41.75;35.50;;;;;13.04;50.94;102285.41;2405319;28;45440;-85
2022/04/28 04:21:39;;;;;;;;;32.50;31.50;;;;;12.99;50.95;102284.59;2405258;28;45544;-84
2022/04/28 04:22:49;;;;;;;;;48.00;37.75;;;;;12.97;50.99;102285.53;2409640;28;46177;-81
2022/04/28 04:24:00;;;;;;;;;49.00;38.50;;;;;12.96;51.12;102289.97;2408060;28;45232;-81
2022/04/28 04:25:10;;;;;;;;;41.25;37.00;;;;;12.94;51.02;102291.72;2403454;28;45382;-82
2022/04/28 04:26:21;;;;;;;;;50.00;39.50;;;;;12.93;51.44;102290.00;2404050;28;45231;-82
2022/04/28 04:27:31;;;;;;;;;52.25;40.25;;;;;12.91;51.01;102289.16;2403407;28;45296;-82
2022/04/28 04:28:42;;;;;;;;;52.25;39.25;;;;;12.88;51.22;102297.13;2403986;28;44668;-81
2022/04/28 04:29:52;;;;;;;;;45.50;37.75;;;;;12.87;51.28;102298.03;2403815;28;46371;-82
2022/04/28 04:32:31;;;;;;;;;41.25;35.50;;;;;12.86;51.61;102296.28;2404129;28;45652;-83
2022/04/28 04:33:42;;;;;;;;;43.75;35.50;;;;;12.85;51.67;102294.53;2418666;28;45231;-83
2022/04/28 04:34:53;;;;;;;;;45.75;37.75;;;;;12.84;51.43;102296.31;2408809;28;46205;-88
2022/04/28 04:36:04;;;;;;;;;45.75;36.75;;;;;12.83;51.68;102303.38;2403072;28;45298;-87
2022/04/28 04:37:14;;;;;;;;;42.75;35.50;;;;;12.85;51.68;102302.47;2393236;28;48109;-88
2022/04/28 04:38:25;;;;;;;;;42.75;36.00;;;;;12.83;51.67;102303.38;2396615;28;45368;-82
2022/04/28 04:39:35;;;;;;;;;45.00;39.00;;;;;12.82;51.55;102295.47;2412543;28;45408;-82
2022/04/28 04:40:46;;;;;;;;;40.25;36.25;;;;;12.81;51.65;102299.03;2412256;28;45432;-82
2022/04/28 04:41:56;;;;;;;;;43.00;37.25;;;;;12.80;51.66;102300.78;2412781;28;45450;-82
2022/04/28 04:43:13;;;;;;;;;40.75;35.50;;;;;12.80;51.67;102302.53;2403978;28;45447;-82
2022/04/28 04:44:24;;;;;;;;;38.00;35.75;;;;;12.77;51.57;102300.81;2403674;28;45395;-81
2022/04/28 04:45:34;;;;;;;;;45.50;37.00;;;;;12.78;51.81;102302.56;2403777;28;44689;-80
2022/04/28 04:46:44;;;;;;;;;45.25;37.50;;;;;12.82;52.07;102308.66;2403674;28;45320;-80
2022/04/28 04:47:55;;;;;;;;;45.25;37.50;;;;;12.80;51.82;102306.06;2403793;28;45322;-80
2022/04/28 04:49:05;;;;;;;;;45.75;38.00;;;;;12.82;51.62;102309.53;2403554;28;45475;-81
2022/04/28 04:50:15;;;;;;;;;48.00;37.75;;;;;12.81;52.01;102307.81;2403615;28;45329;-81
2022/04/28 04:51:26;;;;;;;;;42.25;35.50;;;;;12.82;51.89;102306.91;2403670;28;45363;-79
2022/04/28 04:52:36;;;;;;;;;40.75;33.75;;;;;12.83;51.91;102305.13;2403245;28;45531;-79
2022/04/28 04:53:47;;;;;;;;;48.75;37.75;;;;;12.83;51.89;102316.56;2403370;28;45999;-82
2022/04/28 04:54:58;;;;;;;;;48.50;35.00;;;;;12.83;51.85;102305.13;2403663;28;44696;-82
2022/04/28 04:56:08;;;;;;;;;44.75;37.25;;;;;12.83;51.71;102311.28;2403442;28;46234;-83
2022/04/28 04:57:18;;;;;;;;;49.75;38.50;;;;;12.85;51.85;102318.28;2394657;28;45698;-86
2022/04/28 04:58:29;;;;;;;;;53.75;41.50;;;;;12.83;51.96;102311.28;2396426;28;45282;-86
2022/04/28 04:59:39;;;;;;;;;48.25;39.50;;;;;12.85;52.20;102313.88;2412811;28;45292;-86
2022/04/28 05:00:49;;;;;;;;;49.00;40.25;;;;;12.86;52.04;102314.75;2413016;28;45351;-86
2022/04/28 05:02:00;;;;;;;;;46.50;39.50;;;;;12.85;51.87;102313.00;2402165;28;45149;-83
2022/04/28 05:03:11;;;;;;;;;50.00;39.75;;;;;12.86;51.52;102317.41;2405770;28;46482;-83
2022/04/28 05:04:22;;;;;;;;;43.50;36.00;;;;;12.83;51.68;102311.28;2404193;28;45225;-79
2022/04/28 05:05:32;;;;;;;;;50.75;38.50;;;;;12.83;51.85;102313.06;2403434;28;45379;-77
2022/04/28 05:06:42;;;;;;;;;52.75;40.50;;;;;12.82;51.79;102317.44;2403641;28;45167;-77
2022/04/28 05:07:53;;;;;;;;;44.00;37.50;;;;;12.78;51.94;102313.13;2403252;28;46402;-77
2022/04/28 05:09:03;;;;;;;;;45.50;39.50;;;;;12.79;52.07;102314.84;2403389;28;45223;-79
2022/04/28 05:10:14;;;;;;;;;51.50;41.00;;;;;12.79;51.95;102322.78;2402838;28;45310;-79
2022/04/28 05:11:24;;;;;;;;;48.00;39.25;;;;;12.75;52.12;102317.56;2411304;28;44718;-83
2022/04/28 05:12:35;;;;;;;;;48.75;40.75;;;;;12.74;52.15;102319.34;2404341;28;45567;-83
2022/04/28 05:13:45;;;;;;;;;54.50;42.75;;;;;12.74;52.26;102323.75;2403362;28;45416;-83
2022/04/28 05:14:55;;;;;;;;;46.50;38.75;;;;;12.73;52.24;102320.25;2406886;28;45352;-83
2022/04/28 05:16:06;;;;;;;;;49.25;38.75;;;;;12.74;52.23;102318.50;2403775;28;45407;-83
2022/04/28 05:17:16;;;;;;;;;39.75;36.75;;;;;12.74;52.29;102319.34;2404367;28;46153;-83
2022/04/28 05:18:27;;;;;;;;;43.50;37.75;;;;;12.77;52.44;102327.22;2403646;28;45248;-83
2022/04/28 05:19:38;;;;;;;;;50.00;39.25;;;;;12.77;52.21;102323.69;2405818;28;45366;-83
2022/04/28 05:20:50;;;;;;;;;46.00;40.25;;;;;12.81;52.28;102330.69;2408814;28;44744;-82
2022/04/28 05:22:00;;;;;;;;;49.75;39.25;;;;;12.79;52.28;102322.78;2408428;28;45518;-83
2022/04/28 05:23:10;;;;;;;;;52.00;39.75;;;;;12.82;52.15;102329.75;2408992;28;45197;-83
2022/04/28 05:24:21;;;;;;;;;52.75;40.00;;;;;12.81;52.21;102334.19;2405475;28;46331;-83
2022/04/28 05:25:32;;;;;;;;;52.75;40.25;;;;;12.83;52.39;102334.16;2410108;28;45549;-83
2022/04/28 05:26:43;;;;;;;;;44.75;38.25;;;;;12.85;52.27;102335.00;2412249;28;46191;-83
2022/04/28 05:27:53;;;;;;;;;49.00;39.75;;;;;12.82;52.27;102338.56;2410937;28;45321;-82
2022/04/28 05:29:04;;;;;;;;;48.50;40.50;;;;;12.85;52.19;102342.91;2410506;28;45381;-83
2022/04/28 05:30:14;;;;;;;;;44.75;38.50;;;;;12.83;52.38;102345.59;2412129;28;45465;-83
2022/04/28 05:31:25;;;;;;;;;52.75;39.25;;;;;12.83;52.19;102337.69;2412132;28;45388;-82
2022/04/28 05:32:35;;;;;;;;;50.50;37.75;;;;;12.83;52.02;102348.22;2406755;28;45533;-82
2022/04/28 05:33:45;;;;;;;;;46.25;40.00;;;;;12.83;52.34;102348.22;2410160;28;45492;-80